sensor_id;sensor_type;location;lat;lon;timestamp;pressure;altitude;pressure_sealevel;temperature;humidity
50590;BME280;36547;50.514;30.840;2024-01-11T00:00:10;100345.27;;;-2.07;83.18
50590;BME280;36547;50.514;30.840;2024-01-11T00:01:13;100332.27;;;-2.05;83.11
50590;BME280;36547;50.514;30.840;2024-01-11T00:02:16;100333.98;;;-2.07;83.14
50590;BME280;36547;50.514;30.840;2024-01-11T00:03:18;100337.45;;;-2.08;83.15
50590;BME280;36547;50.514;30.840;2024-01-11T00:04:21;100327.91;;;-2.09;83.25
50590;BME280;36547;50.514;30.840;2024-01-11T00:05:24;100320.95;;;-2.12;83.29
50590;BME280;36547;50.514;30.840;2024-01-11T00:06:27;100310.55;;;-2.10;83.30
50590;BME280;36547;50.514;30.840;2024-01-11T00:07:30;100314.89;;;-2.09;83.25
50590;BME280;36547;50.514;30.840;2024-01-11T00:08:32;100313.15;;;-2.10;83.34
50590;BME280;36547;50.514;30.840;2024-01-11T00:09:41;100309.69;;;-2.09;83.39
50590;BME280;36547;50.514;30.840;2024-01-11T00:10:43;100315.76;;;-2.09;83.42
50590;BME280;36547;50.514;30.840;2024-01-11T00:11:45;100307.95;;;-2.10;83.52
50590;BME280;36547;50.514;30.840;2024-01-11T00:12:48;100307.95;;;-2.10;83.52
50590;BME280;36547;50.514;30.840;2024-01-11T00:13:51;100307.08;;;-2.11;83.52
50590;BME280;36547;50.514;30.840;2024-01-11T00:14:53;100302.73;;;-2.12;83.65
50590;BME280;36547;50.514;30.840;2024-01-11T00:15:56;100303.61;;;-2.10;83.70
50590;BME280;36547;50.514;30.840;2024-01-11T00:16:59;100307.95;;;-2.10;83.72
50590;BME280;36547;50.514;30.840;2024-01-11T00:18:02;100308.83;;;-2.07;83.62
50590;BME280;36547;50.514;30.840;2024-01-11T00:19:05;100311.44;;;-2.05;83.60
50590;BME280;36547;50.514;30.840;2024-01-11T00:20:09;100302.77;;;-2.04;83.68
50590;BME280;36547;50.514;30.840;2024-01-11T00:21:12;100301.87;;;-2.02;83.71
50590;BME280;36547;50.514;30.840;2024-01-11T00:22:18;100301.87;;;-2.00;83.67
50590;BME280;36547;50.514;30.840;2024-01-11T00:23:21;100296.68;;;-1.97;83.57
50590;BME280;36547;50.514;30.840;2024-01-11T00:24:24;100302.76;;;-1.97;83.52
50590;BME280;36547;50.514;30.840;2024-01-11T00:25:29;100309.70;;;-1.97;83.49
50590;BME280;36547;50.514;30.840;2024-01-11T00:26:31;100309.70;;;-1.97;83.44
50590;BME280;36547;50.514;30.840;2024-01-11T00:27:34;100306.22;;;-1.98;83.39
50590;BME280;36547;50.514;30.840;2024-01-11T00:28:36;100297.55;;;-1.98;83.33
50590;BME280;36547;50.514;30.840;2024-01-11T00:29:39;100301.02;;;-1.99;83.38
50590;BME280;36547;50.514;30.840;2024-01-11T00:30:43;100297.55;;;-2.04;83.40
50590;BME280;36547;50.514;30.840;2024-01-11T00:31:46;100296.69;;;-2.03;83.45
50590;BME280;36547;50.514;30.840;2024-01-11T00:32:48;100295.81;;;-2.05;83.42
50590;BME280;36547;50.514;30.840;2024-01-11T00:33:51;100299.30;;;-2.03;83.36
50590;BME280;36547;50.514;30.840;2024-01-11T00:34:54;100297.56;;;-2.03;83.29
50590;BME280;36547;50.514;30.840;2024-01-11T00:35:56;100295.81;;;-2.05;83.22
50590;BME280;36547;50.514;30.840;2024-01-11T00:36:59;100292.34;;;-2.07;83.15
50590;BME280;36547;50.514;30.840;2024-01-11T00:38:02;100297.55;;;-2.07;83.13
50590;BME280;36547;50.514;30.840;2024-01-11T00:39:04;100294.94;;;-2.09;83.22
50590;BME280;36547;50.514;30.840;2024-01-11T00:40:08;100290.59;;;-2.11;83.21
50590;BME280;36547;50.514;30.840;2024-01-11T00:41:10;100296.67;;;-2.09;83.20
50590;BME280;36547;50.514;30.840;2024-01-11T00:42:13;100302.73;;;-2.10;83.24
50590;BME280;36547;50.514;30.840;2024-01-11T00:43:15;100301.87;;;-2.11;83.34
50590;BME280;36547;50.514;30.840;2024-01-11T00:44:17;100297.53;;;-2.10;83.33
50590;BME280;36547;50.514;30.840;2024-01-11T00:45:20;100290.59;;;-2.10;83.36
50590;BME280;36547;50.514;30.840;2024-01-11T00:46:23;100291.45;;;-2.11;83.28
50590;BME280;36547;50.514;30.840;2024-01-11T00:47:25;100281.92;;;-2.10;83.20
50590;BME280;36547;50.514;30.840;2024-01-11T00:48:28;100281.92;;;-2.10;83.17
50590;BME280;36547;50.514;30.840;2024-01-11T00:49:30;100274.11;;;-2.10;83.10
50590;BME280;36547;50.514;30.840;2024-01-11T00:50:33;100281.92;;;-2.07;82.97
50590;BME280;36547;50.514;30.840;2024-01-11T00:51:36;100281.05;;;-2.09;82.93
50590;BME280;36547;50.514;30.840;2024-01-11T00:52:39;100283.64;;;-2.12;83.02
50590;BME280;36547;50.514;30.840;2024-01-11T00:53:42;100271.48;;;-2.15;83.06
50590;BME280;36547;50.514;30.840;2024-01-11T00:54:44;100271.49;;;-2.14;83.02
50590;BME280;36547;50.514;30.840;2024-01-11T00:55:46;100264.57;;;-2.18;82.94
50590;BME280;36547;50.514;30.840;2024-01-11T00:56:49;100261.11;;;-2.17;82.98
50590;BME280;36547;50.514;30.840;2024-01-11T00:57:52;100259.36;;;-2.21;83.00
50590;BME280;36547;50.514;30.840;2024-01-11T00:58:54;100252.41;;;-2.22;82.99
50590;BME280;36547;50.514;30.840;2024-01-11T00:59:57;100248.08;;;-2.20;82.88
50590;BME280;36547;50.514;30.840;2024-01-11T01:01:00;100248.94;;;-2.22;82.91
50590;BME280;36547;50.514;30.840;2024-01-11T01:02:02;100244.61;;;-2.22;83.00
50590;BME280;36547;50.514;30.840;2024-01-11T01:03:05;100248.06;;;-2.24;82.97
50590;BME280;36547;50.514;30.840;2024-01-11T01:04:07;100239.39;;;-2.23;82.95
50590;BME280;36547;50.514;30.840;2024-01-11T01:05:09;100236.80;;;-2.22;82.83
50590;BME280;36547;50.514;30.840;2024-01-11T01:06:15;100240.27;;;-2.23;82.83
50590;BME280;36547;50.514;30.840;2024-01-11T01:07:17;100239.38;;;-2.26;82.97
50590;BME280;36547;50.514;30.840;2024-01-11T01:08:33;100234.20;;;-2.17;83.01
50590;BME280;36547;50.514;30.840;2024-01-11T01:09:38;100235.91;;;-2.30;83.17
50590;BME280;36547;50.514;30.840;2024-01-11T01:10:40;100231.56;;;-2.31;83.16
50590;BME280;36547;50.514;30.840;2024-01-11T01:11:43;100227.23;;;-2.30;83.13
50590;BME280;36547;50.514;30.840;2024-01-11T01:12:45;100227.23;;;-2.29;83.15
50590;BME280;36547;50.514;30.840;2024-01-11T01:13:48;100224.63;;;-2.29;83.21
50590;BME280;36547;50.514;30.840;2024-01-11T01:14:51;100219.42;;;-2.29;83.25
50590;BME280;36547;50.514;30.840;2024-01-11T01:15:53;100218.56;;;-2.28;83.20
50590;BME280;36547;50.514;30.840;2024-01-11T01:16:56;100221.17;;;-2.25;83.12
50590;BME280;36547;50.514;30.840;2024-01-11T01:17:58;100207.29;;;-2.27;83.03
50590;BME280;36547;50.514;30.840;2024-01-11T01:19:01;100218.56;;;-2.28;82.97
50590;BME280;36547;50.514;30.840;2024-01-11T01:20:06;100203.82;;;-2.26;82.94
50590;BME280;36547;50.514;30.840;2024-01-11T01:21:08;100205.56;;;-2.25;82.82
50590;BME280;36547;50.514;30.840;2024-01-11T01:22:11;100199.47;;;-2.30;82.97
50590;BME280;36547;50.514;30.840;2024-01-11T01:23:13;100204.70;;;-2.31;83.03
50590;BME280;36547;50.514;30.840;2024-01-11T01:24:16;100211.64;;;-2.32;83.12
50590;BME280;36547;50.514;30.840;2024-01-11T01:25:20;100210.75;;;-2.31;83.15
50590;BME280;36547;50.514;30.840;2024-01-11T01:26:23;100210.75;;;-2.31;83.10
50590;BME280;36547;50.514;30.840;2024-01-11T01:27:26;100202.94;;;-2.29;83.06
50590;BME280;36547;50.514;30.840;2024-01-11T01:28:28;100201.20;;;-2.30;83.06
50590;BME280;36547;50.514;30.840;2024-01-11T01:29:31;100203.84;;;-2.32;83.07
50590;BME280;36547;50.514;30.840;2024-01-11T01:30:34;100197.73;;;-2.29;82.98
50590;BME280;36547;50.514;30.840;2024-01-11T01:31:36;100195.16;;;-2.32;82.99
50590;BME280;36547;50.514;30.840;2024-01-11T01:32:39;100190.82;;;-2.33;83.04
50590;BME280;36547;50.514;30.840;2024-01-11T01:33:42;100184.75;;;-2.34;83.10
50590;BME280;36547;50.514;30.840;2024-01-11T01:34:45;100191.69;;;-2.33;83.07
50590;BME280;36547;50.514;30.840;2024-01-11T01:35:49;100182.16;;;-2.32;83.10
50590;BME280;36547;50.514;30.840;2024-01-11T01:36:51;100189.95;;;-2.34;83.13
50590;BME280;36547;50.514;30.840;2024-01-11T01:37:55;100177.81;;;-2.35;83.18
50590;BME280;36547;50.514;30.840;2024-01-11T01:38:57;100171.73;;;-2.34;83.17
50590;BME280;36547;50.514;30.840;2024-01-11T01:40:00;100170.88;;;-2.33;83.08
50590;BME280;36547;50.514;30.840;2024-01-11T01:41:03;100174.34;;;-2.34;83.09
50590;BME280;36547;50.514;30.840;2024-01-11T01:42:05;100177.80;;;-2.36;83.16
50590;BME280;36547;50.514;30.840;2024-01-11T01:43:08;100171.73;;;-2.37;83.18
50590;BME280;36547;50.514;30.840;2024-01-11T01:44:10;100172.61;;;-2.35;83.24
50590;BME280;36547;50.514;30.840;2024-01-11T01:45:15;100163.92;;;-2.37;83.26
50590;BME280;36547;50.514;30.840;2024-01-11T01:46:23;100170.87;;;-2.36;83.29
50590;BME280;36547;50.514;30.840;2024-01-11T01:47:26;100163.06;;;-2.36;83.43
50590;BME280;36547;50.514;30.840;2024-01-11T01:48:30;100160.45;;;-2.36;83.35
50590;BME280;36547;50.514;30.840;2024-01-11T01:49:33;100156.99;;;-2.35;83.36
50590;BME280;36547;50.514;30.840;2024-01-11T01:50:36;100156.13;;;-2.34;83.44
50590;BME280;36547;50.514;30.840;2024-01-11T01:51:39;100149.19;;;-2.35;83.48
50590;BME280;36547;50.514;30.840;2024-01-11T01:52:42;100149.19;;;-2.33;83.43
50590;BME280;36547;50.514;30.840;2024-01-11T01:53:45;100150.06;;;-2.33;83.51
50590;BME280;36547;50.514;30.840;2024-01-11T01:54:49;100147.45;;;-2.33;83.58
50590;BME280;36547;50.514;30.840;2024-01-11T01:55:52;100142.26;;;-2.31;83.58
50590;BME280;36547;50.514;30.840;2024-01-11T01:56:56;100137.02;;;-2.30;83.64
50590;BME280;36547;50.514;30.840;2024-01-11T01:57:59;100135.29;;;-2.29;83.61
50590;BME280;36547;50.514;30.840;2024-01-11T01:59:03;100124.02;;;-2.28;83.61
50590;BME280;36547;50.514;30.840;2024-01-11T02:00:10;100128.36;;;-2.24;83.53
50590;BME280;36547;50.514;30.840;2024-01-11T02:01:15;100120.55;;;-2.24;83.53
50590;BME280;36547;50.514;30.840;2024-01-11T02:02:20;100119.69;;;-2.25;83.56
50590;BME280;36547;50.514;30.840;2024-01-11T02:03:24;100121.42;;;-2.24;83.52
50590;BME280;36547;50.514;30.840;2024-01-11T02:04:28;100111.02;;;-2.24;83.56
50590;BME280;36547;50.514;30.840;2024-01-11T02:05:31;100110.15;;;-2.23;83.58
50590;BME280;36547;50.514;30.840;2024-01-11T02:06:34;100103.21;;;-2.21;83.50
50590;BME280;36547;50.514;30.840;2024-01-11T02:07:37;100104.95;;;-2.21;83.51
50590;BME280;36547;50.514;30.840;2024-01-11T02:08:40;100096.27;;;-2.20;83.54
50590;BME280;36547;50.514;30.840;2024-01-11T02:09:44;100088.47;;;-2.17;83.40
50590;BME280;36547;50.514;30.840;2024-01-11T02:10:48;100087.57;;;-2.16;83.33
50590;BME280;36547;50.514;30.840;2024-01-11T02:11:52;100082.39;;;-2.18;83.34
50590;BME280;36547;50.514;30.840;2024-01-11T02:12:55;100080.66;;;-2.19;83.39
50590;BME280;36547;50.514;30.840;2024-01-11T02:13:57;100057.23;;;-2.19;83.38
50590;BME280;36547;50.514;30.840;2024-01-11T02:15:01;100065.02;;;-2.09;83.08
50590;BME280;36547;50.514;30.840;2024-01-11T02:16:04;100065.02;;;-2.12;82.86
50590;BME280;36547;50.514;30.840;2024-01-11T02:17:07;100065.02;;;-2.16;82.85
50590;BME280;36547;50.514;30.840;2024-01-11T02:18:10;100068.52;;;-2.20;82.93
50590;BME280;36547;50.514;30.840;2024-01-11T02:19:13;100070.22;;;-2.16;82.90
50590;BME280;36547;50.514;30.840;2024-01-11T02:20:16;100065.05;;;-2.19;82.86
50590;BME280;36547;50.514;30.840;2024-01-11T02:21:18;100068.52;;;-2.23;82.96
50590;BME280;36547;50.514;30.840;2024-01-11T02:22:31;100058.97;;;-2.24;83.09
50590;BME280;36547;50.514;30.840;2024-01-11T02:23:36;100055.50;;;-2.24;83.08
50590;BME280;36547;50.514;30.840;2024-01-11T02:24:40;100054.63;;;-2.25;83.18
50590;BME280;36547;50.514;30.840;2024-01-11T02:25:42;100055.50;;;-2.21;83.07
50590;BME280;36547;50.514;30.840;2024-01-11T02:27:00;100055.50;;;-2.21;83.06
50590;BME280;36547;50.514;30.840;2024-01-11T02:28:10;100037.25;;;-2.10;83.03
50590;BME280;36547;50.514;30.840;2024-01-11T02:29:13;100051.16;;;-2.24;83.21
50590;BME280;36547;50.514;30.840;2024-01-11T02:30:17;100052.90;;;-2.26;83.26
50590;BME280;36547;50.514;30.840;2024-01-11T02:31:20;100049.42;;;-2.25;83.28
50590;BME280;36547;50.514;30.840;2024-01-11T02:32:22;100040.75;;;-2.24;83.26
50590;BME280;36547;50.514;30.840;2024-01-11T02:33:25;100035.55;;;-2.24;83.33
50590;BME280;36547;50.514;30.840;2024-01-11T02:34:28;100037.28;;;-2.23;83.28
50590;BME280;36547;50.514;30.840;2024-01-11T02:35:32;100030.34;;;-2.24;83.34
50590;BME280;36547;50.514;30.840;2024-01-11T02:36:37;100019.07;;;-2.20;83.25
50590;BME280;36547;50.514;30.840;2024-01-11T02:37:39;100021.67;;;-2.18;83.21
50590;BME280;36547;50.514;30.840;2024-01-11T02:38:42;100016.47;;;-2.20;83.20
50590;BME280;36547;50.514;30.840;2024-01-11T02:39:45;100013.86;;;-2.18;83.23
50590;BME280;36547;50.514;30.840;2024-01-11T02:40:48;100007.80;;;-2.19;83.24
50590;BME280;36547;50.514;30.840;2024-01-11T02:41:53;100006.02;;;-2.15;83.17
50590;BME280;36547;50.514;30.840;2024-01-11T02:42:55;99999.08;;;-2.16;83.23
50590;BME280;36547;50.514;30.840;2024-01-11T02:43:58;100000.85;;;-2.17;83.23
50590;BME280;36547;50.514;30.840;2024-01-11T02:45:04;100005.19;;;-2.17;83.26
50590;BME280;36547;50.514;30.840;2024-01-11T02:46:16;100005.14;;;-2.03;83.25
50590;BME280;36547;50.514;30.840;2024-01-11T02:47:19;99993.91;;;-2.18;83.26
50590;BME280;36547;50.514;30.840;2024-01-11T02:48:21;99998.22;;;-2.15;83.26
50590;BME280;36547;50.514;30.840;2024-01-11T02:49:23;99984.33;;;-2.16;83.20
50590;BME280;36547;50.514;30.840;2024-01-11T02:50:27;99982.63;;;-2.17;83.17
50590;BME280;36547;50.514;30.840;2024-01-11T02:51:29;99980.90;;;-2.18;83.16
50590;BME280;36547;50.514;30.840;2024-01-11T02:52:31;99980.86;;;-2.15;83.10
50590;BME280;36547;50.514;30.840;2024-01-11T02:53:34;99980.00;;;-2.14;83.07
50590;BME280;36547;50.514;30.840;2024-01-11T02:54:36;99976.52;;;-2.12;82.96
50590;BME280;36547;50.514;30.840;2024-01-11T02:55:40;99978.27;;;-2.15;82.97
50590;BME280;36547;50.514;30.840;2024-01-11T02:56:43;99953.14;;;-2.17;82.95
50590;BME280;36547;50.514;30.840;2024-01-11T02:57:45;99973.96;;;-2.17;82.93
50590;BME280;36547;50.514;30.840;2024-01-11T02:58:48;99962.69;;;-2.19;82.92
50590;BME280;36547;50.514;30.840;2024-01-11T02:59:51;99960.09;;;-2.22;82.95
50590;BME280;36547;50.514;30.840;2024-01-11T03:00:54;99949.67;;;-2.22;82.99
50590;BME280;36547;50.514;30.840;2024-01-11T03:01:56;99951.41;;;-2.21;82.99
50590;BME280;36547;50.514;30.840;2024-01-11T03:02:58;99944.47;;;-2.21;83.04
50590;BME280;36547;50.514;30.840;2024-01-11T03:04:01;99954.02;;;-2.23;83.03
50590;BME280;36547;50.514;30.840;2024-01-11T03:05:04;99937.53;;;-2.22;82.99
50590;BME280;36547;50.514;30.840;2024-01-11T03:06:07;99949.67;;;-2.24;82.96
50590;BME280;36547;50.514;30.840;2024-01-11T03:07:10;99948.81;;;-2.26;83.02
50590;BME280;36547;50.514;30.840;2024-01-11T03:08:14;99953.15;;;-2.25;83.03
50590;BME280;36547;50.514;30.840;2024-01-11T03:09:16;99954.02;;;-2.23;83.01
50590;BME280;36547;50.514;30.840;2024-01-11T03:10:20;99949.67;;;-2.22;83.01
50590;BME280;36547;50.514;30.840;2024-01-11T03:11:22;99943.61;;;-2.23;83.02
50590;BME280;36547;50.514;30.840;2024-01-11T03:12:25;99943.61;;;-2.23;83.08
50590;BME280;36547;50.514;30.840;2024-01-11T03:13:28;99949.67;;;-2.22;83.05
50590;BME280;36547;50.514;30.840;2024-01-11T03:14:30;99948.80;;;-2.21;83.07
50590;BME280;36547;50.514;30.840;2024-01-11T03:15:33;99938.41;;;-2.23;83.05
50590;BME280;36547;50.514;30.840;2024-01-11T03:16:36;99933.20;;;-2.23;83.02
50590;BME280;36547;50.514;30.840;2024-01-11T03:17:38;99940.13;;;-2.22;83.00
50590;BME280;36547;50.514;30.840;2024-01-11T03:18:40;99928.86;;;-2.21;82.98
50590;BME280;36547;50.514;30.840;2024-01-11T03:19:44;99924.52;;;-2.22;83.01
50590;BME280;36547;50.514;30.840;2024-01-11T03:20:46;99920.19;;;-2.20;83.03
50590;BME280;36547;50.514;30.840;2024-01-11T03:21:49;99921.05;;;-2.21;83.04
50590;BME280;36547;50.514;30.840;2024-01-11T03:22:52;99911.52;;;-2.23;83.01
50590;BME280;36547;50.514;30.840;2024-01-11T03:23:55;99914.11;;;-2.22;83.02
50590;BME280;36547;50.514;30.840;2024-01-11T03:24:57;99914.98;;;-2.21;83.02
50590;BME280;36547;50.514;30.840;2024-01-11T03:26:00;99902.84;;;-2.22;83.07
50590;BME280;36547;50.514;30.840;2024-01-11T03:27:02;99915.84;;;-2.21;83.01
50590;BME280;36547;50.514;30.840;2024-01-11T03:28:05;99905.44;;;-2.21;83.00
50590;BME280;36547;50.514;30.840;2024-01-11T03:29:07;99901.09;;;-2.19;82.99
50590;BME280;36547;50.514;30.840;2024-01-11T03:30:12;99895.03;;;-2.19;82.98
50590;BME280;36547;50.514;30.840;2024-01-11T03:31:15;99895.89;;;-2.19;82.96
50590;BME280;36547;50.514;30.840;2024-01-11T03:32:17;99884.61;;;-2.18;82.93
50590;BME280;36547;50.514;30.840;2024-01-11T03:33:20;99883.75;;;-2.20;82.93
50590;BME280;36547;50.514;30.840;2024-01-11T03:34:23;99875.95;;;-2.21;82.94
50590;BME280;36547;50.514;30.840;2024-01-11T03:35:26;99878.55;;;-2.21;82.96
50590;BME280;36547;50.514;30.840;2024-01-11T03:36:28;99871.61;;;-2.21;82.93
50590;BME280;36547;50.514;30.840;2024-01-11T03:37:31;99874.20;;;-2.19;82.92
50590;BME280;36547;50.514;30.840;2024-01-11T03:38:33;99872.47;;;-2.20;82.87
50590;BME280;36547;50.514;30.840;2024-01-11T03:39:36;99870.73;;;-2.20;82.86
50590;BME280;36547;50.514;30.840;2024-01-11T03:40:39;99868.13;;;-2.18;82.83
50590;BME280;36547;50.514;30.840;2024-01-11T03:41:45;99861.20;;;-2.21;82.87
50590;BME280;36547;50.514;30.840;2024-01-11T03:42:47;99860.33;;;-2.21;82.90
50590;BME280;36547;50.514;30.840;2024-01-11T03:43:50;99856.87;;;-2.22;82.92
50590;BME280;36547;50.514;30.840;2024-01-11T03:44:52;99858.59;;;-2.21;82.90
50590;BME280;36547;50.514;30.840;2024-01-11T03:45:55;99859.46;;;-2.19;82.86
50590;BME280;36547;50.514;30.840;2024-01-11T03:46:58;99856.85;;;-2.17;82.85
50590;BME280;36547;50.514;30.840;2024-01-11T03:48:00;99861.20;;;-2.19;82.91
50590;BME280;36547;50.514;30.840;2024-01-11T03:49:03;99867.27;;;-2.19;82.91
50590;BME280;36547;50.514;30.840;2024-01-11T03:50:07;99857.73;;;-2.20;82.90
50590;BME280;36547;50.514;30.840;2024-01-11T03:51:09;99865.52;;;-2.17;82.91
50590;BME280;36547;50.514;30.840;2024-01-11T03:52:12;99863.80;;;-2.18;82.88
50590;BME280;36547;50.514;30.840;2024-01-11T03:53:14;99862.06;;;-2.19;82.94
50590;BME280;36547;50.514;30.840;2024-01-11T03:54:17;99857.73;;;-2.20;83.03
50590;BME280;36547;50.514;30.840;2024-01-11T03:55:21;99855.98;;;-2.18;83.06
50590;BME280;36547;50.514;30.840;2024-01-11T03:56:24;99853.38;;;-2.18;83.08
50590;BME280;36547;50.514;30.840;2024-01-11T03:57:27;99851.64;;;-2.17;83.11
50590;BME280;36547;50.514;30.840;2024-01-11T03:58:30;99842.11;;;-2.18;83.13
50590;BME280;36547;50.514;30.840;2024-01-11T03:59:32;99839.50;;;-2.17;83.12
50590;BME280;36547;50.514;30.840;2024-01-11T04:00:34;99848.13;;;-2.15;83.08
50590;BME280;36547;50.514;30.840;2024-01-11T04:01:41;99846.41;;;-2.16;83.11
50590;BME280;36547;50.514;30.840;2024-01-11T04:02:43;99830.83;;;-2.17;83.10
50590;BME280;36547;50.514;30.840;2024-01-11T04:03:45;99837.72;;;-2.11;83.07
50590;BME280;36547;50.514;30.840;2024-01-11T04:04:48;99839.45;;;-2.14;83.05
50590;BME280;36547;50.514;30.840;2024-01-11T04:05:51;99839.45;;;-2.14;83.08
50590;BME280;36547;50.514;30.840;2024-01-11T04:06:53;99841.17;;;-2.09;83.02
50590;BME280;36547;50.514;30.840;2024-01-11T04:07:56;99832.50;;;-2.10;82.96
50590;BME280;36547;50.514;30.840;2024-01-11T04:08:58;99834.24;;;-2.10;82.85
50590;BME280;36547;50.514;30.840;2024-01-11T04:10:00;99829.03;;;-2.10;82.87
50590;BME280;36547;50.514;30.840;2024-01-11T04:11:03;99830.78;;;-2.12;82.92
50590;BME280;36547;50.514;30.840;2024-01-11T04:12:06;99831.65;;;-2.14;82.95
50590;BME280;36547;50.514;30.840;2024-01-11T04:13:08;99831.64;;;-2.12;83.03
50590;BME280;36547;50.514;30.840;2024-01-11T04:14:11;99829.05;;;-2.14;83.05
50590;BME280;36547;50.514;30.840;2024-01-11T04:15:14;99822.09;;;-2.11;83.00
50590;BME280;36547;50.514;30.840;2024-01-11T04:16:18;99818.63;;;-2.10;82.95
50590;BME280;36547;50.514;30.840;2024-01-11T04:17:21;99816.02;;;-2.10;82.93
50590;BME280;36547;50.514;30.840;2024-01-11T04:18:23;99809.95;;;-2.09;82.87
50590;BME280;36547;50.514;30.840;2024-01-11T04:19:26;99809.08;;;-2.10;82.79
50590;BME280;36547;50.514;30.840;2024-01-11T04:20:29;99812.56;;;-2.12;82.79
50590;BME280;36547;50.514;30.840;2024-01-11T04:21:31;99815.16;;;-2.12;82.84
50590;BME280;36547;50.514;30.840;2024-01-11T04:22:34;99822.09;;;-2.11;82.83
50590;BME280;36547;50.514;30.840;2024-01-11T04:23:37;99820.37;;;-2.12;82.79
50590;BME280;36547;50.514;30.840;2024-01-11T04:24:41;99827.30;;;-2.11;82.74
50590;BME280;36547;50.514;30.840;2024-01-11T04:25:44;99822.97;;;-2.12;82.69
50590;BME280;36547;50.514;30.840;2024-01-11T04:26:47;99826.44;;;-2.12;82.70
50590;BME280;36547;50.514;30.840;2024-01-11T04:27:49;99835.11;;;-2.11;82.65
50590;BME280;36547;50.514;30.840;2024-01-11T04:28:52;99828.17;;;-2.11;82.61
50590;BME280;36547;50.514;30.840;2024-01-11T04:29:57;99829.91;;;-2.10;82.67
50590;BME280;36547;50.514;30.840;2024-01-11T04:31:00;99829.03;;;-2.10;82.64
50590;BME280;36547;50.514;30.840;2024-01-11T04:32:02;99839.45;;;-2.10;82.61
50590;BME280;36547;50.514;30.840;2024-01-11T04:33:05;99845.52;;;-2.08;82.54
50590;BME280;36547;50.514;30.840;2024-01-11T04:34:08;99835.09;;;-2.07;82.42
50590;BME280;36547;50.514;30.840;2024-01-11T04:35:11;99831.63;;;-2.09;82.33
50590;BME280;36547;50.514;30.840;2024-01-11T04:36:14;99821.23;;;-2.10;82.32
50590;BME280;36547;50.514;30.840;2024-01-11T04:37:18;99811.69;;;-2.11;82.27
50590;BME280;36547;50.514;30.840;2024-01-11T04:38:21;99810.81;;;-2.10;82.26
50590;BME280;36547;50.514;30.840;2024-01-11T04:39:23;99828.17;;;-2.12;82.28
50590;BME280;36547;50.514;30.840;2024-01-11T04:40:27;99829.05;;;-2.14;82.31
50590;BME280;36547;50.514;30.840;2024-01-11T04:41:29;99818.64;;;-2.14;82.36
50590;BME280;36547;50.514;30.840;2024-01-11T04:42:32;99818.64;;;-2.14;82.39
50590;BME280;36547;50.514;30.840;2024-01-11T04:43:41;99812.56;;;-2.12;82.39
50590;BME280;36547;50.514;30.840;2024-01-11T04:44:44;99814.28;;;-2.10;82.29
50590;BME280;36547;50.514;30.840;2024-01-11T04:45:47;99804.74;;;-2.09;82.25
50590;BME280;36547;50.514;30.840;2024-01-11T04:46:50;99796.06;;;-2.08;82.07
50590;BME280;36547;50.514;30.840;2024-01-11T04:47:52;99816.88;;;-2.08;81.98
50590;BME280;36547;50.514;30.840;2024-01-11T04:48:55;99815.14;;;-2.08;82.01
50590;BME280;36547;50.514;30.840;2024-01-11T04:49:58;99817.75;;;-2.09;82.00
50590;BME280;36547;50.514;30.840;2024-01-11T04:51:02;99816.89;;;-2.11;82.01
50590;BME280;36547;50.514;30.840;2024-01-11T04:52:05;99815.16;;;-2.09;81.93
50590;BME280;36547;50.514;30.840;2024-01-11T04:53:08;99816.89;;;-2.11;81.97
50590;BME280;36547;50.514;30.840;2024-01-11T04:54:10;99816.89;;;-2.11;82.03
50590;BME280;36547;50.514;30.840;2024-01-11T04:55:12;99811.69;;;-2.11;82.05
50590;BME280;36547;50.514;30.840;2024-01-11T04:56:16;99817.75;;;-2.09;82.01
50590;BME280;36547;50.514;30.840;2024-01-11T04:57:19;99825.56;;;-2.09;82.01
50590;BME280;36547;50.514;30.840;2024-01-11T04:58:22;99825.56;;;-2.09;82.02
50590;BME280;36547;50.514;30.840;2024-01-11T04:59:25;99824.69;;;-2.08;82.02
50590;BME280;36547;50.514;30.840;2024-01-11T05:00:27;99818.61;;;-2.07;81.90
50590;BME280;36547;50.514;30.840;2024-01-11T05:01:30;99826.43;;;-2.09;81.87
50590;BME280;36547;50.514;30.840;2024-01-11T05:02:32;99827.30;;;-2.08;81.87
50590;BME280;36547;50.514;30.840;2024-01-11T05:03:36;99827.30;;;-2.08;81.89
50590;BME280;36547;50.514;30.840;2024-01-11T05:04:38;99820.34;;;-2.08;81.95
50590;BME280;36547;50.514;30.840;2024-01-11T05:05:40;99822.95;;;-2.06;81.95
50590;BME280;36547;50.514;30.840;2024-01-11T05:06:44;99819.47;;;-2.04;81.88
50590;BME280;36547;50.514;30.840;2024-01-11T05:07:46;99812.52;;;-2.03;81.88
50590;BME280;36547;50.514;30.840;2024-01-11T05:08:52;99811.66;;;-2.04;81.84
50590;BME280;36547;50.514;30.840;2024-01-11T05:09:55;99808.19;;;-2.04;81.81
50590;BME280;36547;50.514;30.840;2024-01-11T05:10:58;99799.52;;;-2.03;81.80
50590;BME280;36547;50.514;30.840;2024-01-11T05:12:00;99802.94;;;-2.01;81.69
50590;BME280;36547;50.514;30.840;2024-01-11T05:13:03;99796.86;;;-2.02;81.59
50590;BME280;36547;50.514;30.840;2024-01-11T05:14:06;99802.98;;;-2.06;81.68
50590;BME280;36547;50.514;30.840;2024-01-11T05:15:09;99806.47;;;-2.07;81.72
50590;BME280;36547;50.514;30.840;2024-01-11T05:17:29;99796.94;;;-2.09;81.81
50590;BME280;36547;50.514;30.840;2024-01-11T05:18:32;99801.27;;;-2.08;81.85
50590;BME280;36547;50.514;30.840;2024-01-11T05:19:36;99792.60;;;-2.10;81.92
50590;BME280;36547;50.514;30.840;2024-01-11T05:20:39;99780.45;;;-2.11;81.96
50590;BME280;36547;50.514;30.840;2024-01-11T05:21:42;99784.81;;;-2.14;82.00
50590;BME280;36547;50.514;30.840;2024-01-11T05:22:45;99788.28;;;-2.15;82.13
50590;BME280;36547;50.514;30.840;2024-01-11T05:23:48;99781.34;;;-2.16;82.13
50590;BME280;36547;50.514;30.840;2024-01-11T05:24:50;99783.95;;;-2.16;82.18
50590;BME280;36547;50.514;30.840;2024-01-11T05:25:52;99782.21;;;-2.15;82.23
50590;BME280;36547;50.514;30.840;2024-01-11T05:26:55;99781.33;;;-2.12;82.22
50590;BME280;36547;50.514;30.840;2024-01-11T05:27:58;99771.80;;;-2.15;82.25
50590;BME280;36547;50.514;30.840;2024-01-11T05:29:00;99788.28;;;-2.16;82.35